Terminal Aerodrome Forecast
Issued by NWS

Home | Current Version | Previous Version | Text Only | Print | Product List | Glossary On
Versions: 1 2 3 4 5 6 7 8 9 10 11 12 13 14 15 16 17 18 19 20 21 22 23 24
000
FTAK31 PAFA 222339
TAFAFA
TAF
PAFA 222339Z 2300/2406 00000KT P6SM SCT080 BKN150 BKN250
     FM230600 00000KT P6SM -SHSN BKN050 BKN100
     FM231500 VRB04KT 3SM -SN BR SCT015 BKN030 OVC050
     FM232100 00000KT P6SM VCSH BKN020 OVC040=

USA.gov is the U.S. government's official web portal to all federal, state and local government web resources and services.